sensor_id;sensor_type;location;lat;lon;timestamp;pressure;altitude;pressure_sealevel;temperature;humidity
27685;BME280;46113;50.130;8.526;2023-03-22T05:01:49;98678.06;;;2.55;79.55
27685;BME280;46113;50.130;8.526;2023-03-22T05:04:21;98663.22;;;2.56;79.39
27685;BME280;46113;50.130;8.526;2023-03-22T05:06:53;98670.00;;;2.08;81.61
27685;BME280;46113;50.130;8.526;2023-03-22T05:09:27;98661.38;;;2.33;80.87
27685;BME280;46113;50.130;8.526;2023-03-22T05:11:54;98668.72;;;2.21;81.01
27685;BME280;46113;50.130;8.526;2023-03-22T05:14:44;98675.69;;;2.48;80.10
27685;BME280;46113;50.130;8.526;2023-03-22T05:17:14;98667.69;;;2.52;79.87
27685;BME280;46113;50.130;8.526;2023-03-22T05:19:43;98667.34;;;2.63;79.61
27685;BME280;46113;50.130;8.526;2023-03-22T05:22:10;98669.13;;;2.61;79.56
27685;BME280;46113;50.130;8.526;2023-03-22T05:24:42;98675.84;;;2.16;81.93
27685;BME280;46113;50.130;8.526;2023-03-22T05:27:15;98670.41;;;2.49;80.63
27685;BME280;46113;50.130;8.526;2023-03-22T05:29:42;98679.53;;;2.63;80.26
27685;BME280;46113;50.130;8.526;2023-03-22T05:32:19;98676.88;;;2.64;80.33
27685;BME280;46113;50.130;8.526;2023-03-22T05:34:52;98675.41;;;2.30;80.69
27685;BME280;46113;50.130;8.526;2023-03-22T05:37:31;98674.09;;;2.69;79.82
27685;BME280;46113;50.130;8.526;2023-03-22T05:39:58;98678.03;;;2.81;79.76
27685;BME280;46113;50.130;8.526;2023-03-22T05:42:34;98684.50;;;2.96;79.28
27685;BME280;46113;50.130;8.526;2023-03-22T05:45:10;98687.81;;;3.01;79.29
27685;BME280;46113;50.130;8.526;2023-03-22T05:47:38;98691.59;;;2.67;79.35
27685;BME280;46113;50.130;8.526;2023-03-22T05:50:13;98697.88;;;2.61;79.69
27685;BME280;46113;50.130;8.526;2023-03-22T05:52:41;98693.91;;;3.00;79.19
27685;BME280;46113;50.130;8.526;2023-03-22T05:55:24;98703.22;;;3.09;78.85
27685;BME280;46113;50.130;8.526;2023-03-22T05:57:55;98701.59;;;3.05;78.02
27685;BME280;46113;50.130;8.526;2023-03-22T06:00:24;98706.19;;;2.73;79.55
27685;BME280;46113;50.130;8.526;2023-03-22T06:03:21;98708.84;;;2.97;79.46
27685;BME280;46113;50.130;8.526;2023-03-22T06:05:59;98712.19;;;2.76;78.90
27685;BME280;46113;50.130;8.526;2023-03-22T06:08:44;98707.06;;;3.23;78.38
27685;BME280;46113;50.130;8.526;2023-03-22T06:11:11;98699.75;;;3.32;77.72
27685;BME280;46113;50.130;8.526;2023-03-22T06:13:38;98708.28;;;3.38;77.28
27685;BME280;46113;50.130;8.526;2023-03-22T06:16:07;98705.19;;;3.50;77.21
27685;BME280;46113;50.130;8.526;2023-03-22T06:18:33;98701.50;;;3.32;77.12
27685;BME280;46113;50.130;8.526;2023-03-22T06:21:06;98702.91;;;3.41;76.98
27685;BME280;46113;50.130;8.526;2023-03-22T06:23:33;98700.69;;;3.55;76.71
27685;BME280;46113;50.130;8.526;2023-03-22T06:26:00;98702.78;;;3.69;76.35
27685;BME280;46113;50.130;8.526;2023-03-22T06:28:27;98699.22;;;3.46;77.06
27685;BME280;46113;50.130;8.526;2023-03-22T06:30:56;98697.84;;;3.84;76.54
27685;BME280;46113;50.130;8.526;2023-03-22T06:33:26;98699.63;;;3.83;76.32
27685;BME280;46113;50.130;8.526;2023-03-22T06:36:05;98706.50;;;3.86;76.22
27685;BME280;46113;50.130;8.526;2023-03-22T06:38:41;98709.25;;;4.05;75.47
27685;BME280;46113;50.130;8.526;2023-03-22T06:41:07;98700.00;;;4.19;75.70
27685;BME280;46113;50.130;8.526;2023-03-22T06:43:34;98696.16;;;4.05;76.36
27685;BME280;46113;50.130;8.526;2023-03-22T06:46:18;98698.97;;;3.78;77.87
27685;BME280;46113;50.130;8.526;2023-03-22T06:48:54;98701.06;;;4.35;76.65
27685;BME280;46113;50.130;8.526;2023-03-22T06:51:21;98690.81;;;4.72;75.72
27685;BME280;46113;50.130;8.526;2023-03-22T06:53:48;98685.50;;;4.95;74.62
27685;BME280;46113;50.130;8.526;2023-03-22T06:56:15;98697.03;;;5.11;75.30
27685;BME280;46113;50.130;8.526;2023-03-22T06:58:49;98697.31;;;5.64;74.34
27685;BME280;46113;50.130;8.526;2023-03-22T11:33:55;98567.13;;;12.72;48.82
27685;BME280;46113;50.130;8.526;2023-03-22T11:36:22;98574.47;;;12.80;47.39
27685;BME280;46113;50.130;8.526;2023-03-22T11:38:58;98578.06;;;12.44;46.79
27685;BME280;46113;50.130;8.526;2023-03-22T11:41:30;98568.44;;;11.83;48.46
27685;BME280;46113;50.130;8.526;2023-03-22T11:44:02;98585.09;;;12.57;45.71
27685;BME280;46113;50.130;8.526;2023-03-22T11:46:30;98575.41;;;12.56;46.31
27685;BME280;46113;50.130;8.526;2023-03-22T11:49:05;98557.25;;;13.08;45.29
27685;BME280;46113;50.130;8.526;2023-03-22T11:51:37;98552.69;;;13.10;44.29
27685;BME280;46113;50.130;8.526;2023-03-22T11:54:12;98553.00;;;12.94;46.33
27685;BME280;46113;50.130;8.526;2023-03-22T11:56:44;98552.44;;;12.79;46.70
27685;BME280;46113;50.130;8.526;2023-03-22T11:59:15;98558.34;;;13.17;44.74
27685;BME280;46113;50.130;8.526;2023-03-22T12:04:26;98550.50;;;11.87;46.66
27685;BME280;46113;50.130;8.526;2023-03-22T12:06:56;98545.34;;;12.21;44.20
27685;BME280;46113;50.130;8.526;2023-03-22T12:09:43;98542.75;;;12.55;45.56
27685;BME280;46113;50.130;8.526;2023-03-22T12:12:21;98533.69;;;12.81;46.04
27685;BME280;46113;50.130;8.526;2023-03-22T12:14:54;98533.22;;;12.76;46.20
27685;BME280;46113;50.130;8.526;2023-03-22T12:19:59;98523.81;;;12.83;43.64
27685;BME280;46113;50.130;8.526;2023-03-22T12:22:34;98520.94;;;12.63;45.38
27685;BME280;46113;50.130;8.526;2023-03-22T12:25:01;98528.72;;;12.19;45.15
27685;BME280;46113;50.130;8.526;2023-03-22T12:27:36;98516.34;;;12.42;44.79
27685;BME280;46113;50.130;8.526;2023-03-22T12:30:15;98526.94;;;12.65;43.89
27685;BME280;46113;50.130;8.526;2023-03-22T12:33:14;98518.38;;;12.73;45.25
27685;BME280;46113;50.130;8.526;2023-03-22T12:35:41;98521.97;;;12.38;45.58
27685;BME280;46113;50.130;8.526;2023-03-22T12:38:25;98510.91;;;12.55;45.20
27685;BME280;46113;50.130;8.526;2023-03-22T12:40:56;98505.59;;;13.12;44.68
27685;BME280;46113;50.130;8.526;2023-03-22T12:46:25;98509.34;;;13.10;43.73
27685;BME280;46113;50.130;8.526;2023-03-22T12:51:42;98502.91;;;13.24;43.94
27685;BME280;46113;50.130;8.526;2023-03-22T12:54:10;98505.25;;;12.83;44.39
27685;BME280;46113;50.130;8.526;2023-03-22T12:56:41;98488.06;;;13.54;42.25
27685;BME280;46113;50.130;8.526;2023-03-22T12:59:28;98493.91;;;12.92;44.82
27685;BME280;46113;50.130;8.526;2023-03-22T13:02:13;98493.13;;;13.90;42.73
27685;BME280;46113;50.130;8.526;2023-03-22T13:09:46;98487.25;;;13.54;43.67
27685;BME280;46113;50.130;8.526;2023-03-22T13:30:22;98462.75;;;13.50;43.83
27685;BME280;46113;50.130;8.526;2023-03-22T13:32:51;98461.44;;;13.00;44.04
27685;BME280;46113;50.130;8.526;2023-03-22T13:35:44;98446.38;;;13.33;44.60
27685;BME280;46113;50.130;8.526;2023-03-22T13:38:26;98453.22;;;13.15;45.47
27685;BME280;46113;50.130;8.526;2023-03-22T13:41:08;98450.66;;;13.78;44.21
27685;BME280;46113;50.130;8.526;2023-03-22T13:43:46;98450.69;;;13.46;43.59
27685;BME280;46113;50.130;8.526;2023-03-22T13:56:50;98434.94;;;13.21;44.73
27685;BME280;46113;50.130;8.526;2023-03-22T14:04:42;98426.81;;;13.02;43.49
27685;BME280;46113;50.130;8.526;2023-03-22T14:07:23;98425.63;;;13.81;42.11
27685;BME280;46113;50.130;8.526;2023-03-22T14:09:54;98426.75;;;12.69;44.79
27685;BME280;46113;50.130;8.526;2023-03-22T14:14:54;98416.78;;;13.05;43.75
27685;BME280;46113;50.130;8.526;2023-03-22T14:19:56;98419.56;;;13.36;43.47
27685;BME280;46113;50.130;8.526;2023-03-22T14:22:32;98410.59;;;12.60;45.47
27685;BME280;46113;50.130;8.526;2023-03-22T14:24:59;98410.38;;;12.96;45.10
27685;BME280;46113;50.130;8.526;2023-03-22T14:27:27;98402.44;;;13.08;43.37
27685;BME280;46113;50.130;8.526;2023-03-22T14:29:52;98407.28;;;13.35;43.07
27685;BME280;46113;50.130;8.526;2023-03-22T14:32:23;98405.66;;;13.11;43.74
27685;BME280;46113;50.130;8.526;2023-03-22T14:35:05;98405.22;;;12.95;42.29
27685;BME280;46113;50.130;8.526;2023-03-22T14:37:32;98401.97;;;13.35;41.42
27685;BME280;46113;50.130;8.526;2023-03-22T14:39:58;98398.69;;;13.32;42.85
27685;BME280;46113;50.130;8.526;2023-03-22T14:42:29;98394.63;;;12.72;43.52
27685;BME280;46113;50.130;8.526;2023-03-22T14:44:59;98400.88;;;13.26;41.62
27685;BME280;46113;50.130;8.526;2023-03-22T14:47:40;98389.91;;;13.31;41.48
27685;BME280;46113;50.130;8.526;2023-03-22T14:50:14;98391.97;;;13.70;40.91
27685;BME280;46113;50.130;8.526;2023-03-22T14:52:42;98399.38;;;13.45;43.01
27685;BME280;46113;50.130;8.526;2023-03-22T14:55:15;98391.19;;;13.58;41.04
27685;BME280;46113;50.130;8.526;2023-03-22T14:57:51;98402.13;;;13.22;42.37
27685;BME280;46113;50.130;8.526;2023-03-22T15:00:21;98387.63;;;13.48;42.50
27685;BME280;46113;50.130;8.526;2023-03-22T15:03:06;98382.72;;;13.43;43.83
27685;BME280;46113;50.130;8.526;2023-03-22T15:05:39;98375.47;;;13.67;42.10
27685;BME280;46113;50.130;8.526;2023-03-22T15:08:08;98375.59;;;13.65;41.79
27685;BME280;46113;50.130;8.526;2023-03-22T15:10:35;98379.94;;;13.66;42.49
27685;BME280;46113;50.130;8.526;2023-03-22T15:13:02;98384.25;;;13.67;41.80
27685;BME280;46113;50.130;8.526;2023-03-22T15:15:32;98380.94;;;13.96;42.27
27685;BME280;46113;50.130;8.526;2023-03-22T15:17:59;98380.31;;;13.61;41.78
27685;BME280;46113;50.130;8.526;2023-03-22T15:20:27;98377.53;;;13.63;42.28
27685;BME280;46113;50.130;8.526;2023-03-22T15:22:56;98378.38;;;13.21;44.74
27685;BME280;46113;50.130;8.526;2023-03-22T15:25:34;98369.91;;;13.48;42.16
27685;BME280;46113;50.130;8.526;2023-03-22T15:28:05;98375.44;;;12.80;42.30
27685;BME280;46113;50.130;8.526;2023-03-22T15:30:30;98373.84;;;12.89;43.73
27685;BME280;46113;50.130;8.526;2023-03-22T15:33:05;98371.97;;;13.45;42.30
27685;BME280;46113;50.130;8.526;2023-03-22T15:35:31;98376.34;;;13.13;41.74
27685;BME280;46113;50.130;8.526;2023-03-22T15:37:57;98375.13;;;13.17;42.19
27685;BME280;46113;50.130;8.526;2023-03-22T15:43:14;98374.22;;;13.28;41.58
27685;BME280;46113;50.130;8.526;2023-03-22T15:46:18;98376.81;;;12.74;44.17
27685;BME280;46113;50.130;8.526;2023-03-22T15:48:55;98385.03;;;13.04;42.44
27685;BME280;46113;50.130;8.526;2023-03-22T15:51:27;98390.66;;;13.22;41.67
27685;BME280;46113;50.130;8.526;2023-03-22T15:54:02;98384.91;;;13.05;41.07
27685;BME280;46113;50.130;8.526;2023-03-22T15:56:34;98386.38;;;13.31;41.04
27685;BME280;46113;50.130;8.526;2023-03-22T15:59:02;98391.56;;;12.99;43.63
27685;BME280;46113;50.130;8.526;2023-03-22T16:01:34;98391.03;;;12.62;42.66
27685;BME280;46113;50.130;8.526;2023-03-22T16:04:30;98403.28;;;12.97;42.42
27685;BME280;46113;50.130;8.526;2023-03-22T16:07:00;98397.53;;;13.24;42.11
27685;BME280;46113;50.130;8.526;2023-03-22T16:09:26;98408.94;;;12.25;42.75
27685;BME280;46113;50.130;8.526;2023-03-22T16:11:52;98402.03;;;12.57;42.38
27685;BME280;46113;50.130;8.526;2023-03-22T16:14:18;98401.88;;;12.81;41.47
27685;BME280;46113;50.130;8.526;2023-03-22T16:16:45;98413.66;;;12.89;42.91
27685;BME280;46113;50.130;8.526;2023-03-22T16:19:11;98413.13;;;12.62;42.74
27685;BME280;46113;50.130;8.526;2023-03-22T16:21:38;98419.63;;;12.35;45.91
27685;BME280;46113;50.130;8.526;2023-03-22T16:24:05;98419.97;;;12.53;43.86
27685;BME280;46113;50.130;8.526;2023-03-22T16:26:31;98420.97;;;12.29;44.10
27685;BME280;46113;50.130;8.526;2023-03-22T16:28:56;98434.09;;;12.19;43.12
27685;BME280;46113;50.130;8.526;2023-03-22T16:31:22;98439.28;;;12.32;41.45
27685;BME280;46113;50.130;8.526;2023-03-22T16:33:49;98441.47;;;12.50;41.25
27685;BME280;46113;50.130;8.526;2023-03-22T16:36:18;98445.34;;;12.35;41.20
27685;BME280;46113;50.130;8.526;2023-03-22T16:38:44;98446.63;;;12.40;42.63
27685;BME280;46113;50.130;8.526;2023-03-22T16:41:26;98455.44;;;12.41;41.61
27685;BME280;46113;50.130;8.526;2023-03-22T16:43:55;98447.13;;;12.11;43.82
27685;BME280;46113;50.130;8.526;2023-03-22T16:46:22;98449.28;;;12.29;43.77
27685;BME280;46113;50.130;8.526;2023-03-22T16:48:47;98436.81;;;11.95;43.29
27685;BME280;46113;50.130;8.526;2023-03-22T16:51:25;98449.47;;;12.03;44.00
27685;BME280;46113;50.130;8.526;2023-03-22T16:53:52;98444.81;;;12.18;43.49
27685;BME280;46113;50.130;8.526;2023-03-22T16:56:22;98445.72;;;11.83;45.58
27685;BME280;46113;50.130;8.526;2023-03-22T16:58:49;98427.53;;;11.42;45.32
27685;BME280;46113;50.130;8.526;2023-03-22T17:01:18;98409.50;;;11.47;46.67
27685;BME280;46113;50.130;8.526;2023-03-22T17:03:45;98419.63;;;11.29;46.69
27685;BME280;46113;50.130;8.526;2023-03-22T17:06:13;98416.06;;;11.30;50.21
27685;BME280;46113;50.130;8.526;2023-03-22T17:08:39;98420.28;;;11.08;52.54
27685;BME280;46113;50.130;8.526;2023-03-22T17:11:06;98423.66;;;11.10;50.95
27685;BME280;46113;50.130;8.526;2023-03-22T17:13:34;98415.34;;;10.66;51.08
27685;BME280;46113;50.130;8.526;2023-03-22T17:15:59;98413.63;;;10.65;46.74
27685;BME280;46113;50.130;8.526;2023-03-22T17:18:25;98408.91;;;10.95;47.03
27685;BME280;46113;50.130;8.526;2023-03-22T17:20:50;98413.91;;;11.11;48.16
27685;BME280;46113;50.130;8.526;2023-03-22T17:23:16;98425.91;;;11.04;46.03
27685;BME280;46113;50.130;8.526;2023-03-22T17:25:43;98406.50;;;10.79;47.06
27685;BME280;46113;50.130;8.526;2023-03-22T17:28:12;98413.66;;;10.90;45.70
27685;BME280;46113;50.130;8.526;2023-03-22T17:30:39;98411.56;;;10.95;45.02
27685;BME280;46113;50.130;8.526;2023-03-22T17:33:05;98399.38;;;11.17;44.79
27685;BME280;46113;50.130;8.526;2023-03-22T17:35:31;98414.41;;;11.16;46.02
27685;BME280;46113;50.130;8.526;2023-03-22T17:37:59;98412.00;;;10.75;41.73
27685;BME280;46113;50.130;8.526;2023-03-22T17:40:26;98406.03;;;10.98;40.91
27685;BME280;46113;50.130;8.526;2023-03-22T17:42:52;98395.00;;;10.91;40.25
27685;BME280;46113;50.130;8.526;2023-03-22T17:47:44;98416.34;;;11.14;40.28
27685;BME280;46113;50.130;8.526;2023-03-22T17:50:10;98410.53;;;11.09;40.96
27685;BME280;46113;50.130;8.526;2023-03-22T17:52:35;98419.97;;;10.62;42.43
27685;BME280;46113;50.130;8.526;2023-03-22T17:55:01;98412.47;;;10.56;40.78
27685;BME280;46113;50.130;8.526;2023-03-22T17:57:27;98424.66;;;10.83;42.11
27685;BME280;46113;50.130;8.526;2023-03-22T17:59:52;98429.41;;;10.91;44.74
27685;BME280;46113;50.130;8.526;2023-03-22T18:02:21;98424.56;;;10.85;44.07
27685;BME280;46113;50.130;8.526;2023-03-22T18:04:48;98436.31;;;10.81;45.16
27685;BME280;46113;50.130;8.526;2023-03-22T18:07:13;98435.97;;;10.61;44.87
27685;BME280;46113;50.130;8.526;2023-03-22T18:09:39;98432.91;;;10.54;47.36
27685;BME280;46113;50.130;8.526;2023-03-22T18:12:04;98426.03;;;10.65;43.97
27685;BME280;46113;50.130;8.526;2023-03-22T18:14:30;98430.84;;;10.71;43.19
27685;BME280;46113;50.130;8.526;2023-03-22T18:16:56;98425.47;;;10.72;46.85
27685;BME280;46113;50.130;8.526;2023-03-22T18:19:21;98422.50;;;10.64;45.72
27685;BME280;46113;50.130;8.526;2023-03-22T18:21:56;98423.53;;;10.74;44.32
27685;BME280;46113;50.130;8.526;2023-03-22T18:24:23;98432.06;;;10.54;49.15
27685;BME280;46113;50.130;8.526;2023-03-22T18:26:56;98425.75;;;10.43;49.83
27685;BME280;46113;50.130;8.526;2023-03-22T18:29:26;98428.22;;;10.20;50.43
27685;BME280;46113;50.130;8.526;2023-03-22T18:31:52;98423.97;;;10.31;45.71
27685;BME280;46113;50.130;8.526;2023-03-22T18:34:18;98418.25;;;10.37;45.69
27685;BME280;46113;50.130;8.526;2023-03-22T18:36:47;98425.34;;;10.24;50.14
27685;BME280;46113;50.130;8.526;2023-03-22T18:39:13;98434.66;;;10.29;45.83
27685;BME280;46113;50.130;8.526;2023-03-22T18:41:45;98424.47;;;10.49;44.68
27685;BME280;46113;50.130;8.526;2023-03-22T18:44:13;98433.47;;;10.33;48.21
27685;BME280;46113;50.130;8.526;2023-03-22T18:46:40;98431.91;;;10.18;49.17
27685;BME280;46113;50.130;8.526;2023-03-22T18:49:06;98440.91;;;10.15;49.75
27685;BME280;46113;50.130;8.526;2023-03-22T18:51:31;98439.41;;;9.85;49.15
27685;BME280;46113;50.130;8.526;2023-03-22T18:53:57;98444.56;;;10.00;50.71
27685;BME280;46113;50.130;8.526;2023-03-22T18:56:22;98442.97;;;9.97;52.20
27685;BME280;46113;50.130;8.526;2023-03-22T18:58:48;98443.13;;;9.95;52.41
27685;BME280;46113;50.130;8.526;2023-03-22T19:01:14;98446.66;;;9.81;53.10
27685;BME280;46113;50.130;8.526;2023-03-22T19:03:40;98444.59;;;9.59;52.31
27685;BME280;46113;50.130;8.526;2023-03-22T19:06:08;98446.81;;;9.52;52.62
27685;BME280;46113;50.130;8.526;2023-03-22T19:08:36;98441.81;;;9.35;52.55
27685;BME280;46113;50.130;8.526;2023-03-22T19:11:02;98441.28;;;9.42;53.18
27685;BME280;46113;50.130;8.526;2023-03-22T19:13:28;98446.50;;;9.16;53.07
27685;BME280;46113;50.130;8.526;2023-03-22T19:15:58;98439.16;;;9.35;54.39
27685;BME280;46113;50.130;8.526;2023-03-22T19:18:23;98442.66;;;9.35;53.25
27685;BME280;46113;50.130;8.526;2023-03-22T19:20:49;98437.91;;;9.40;53.66
27685;BME280;46113;50.130;8.526;2023-03-22T19:23:14;98438.84;;;8.99;52.83
27685;BME280;46113;50.130;8.526;2023-03-22T19:25:40;98438.03;;;9.11;53.38
27685;BME280;46113;50.130;8.526;2023-03-22T19:28:05;98442.00;;;8.76;53.62
27685;BME280;46113;50.130;8.526;2023-03-22T19:30:31;98441.34;;;9.00;55.07
27685;BME280;46113;50.130;8.526;2023-03-22T19:32:57;98454.81;;;9.10;54.29
27685;BME280;46113;50.130;8.526;2023-03-22T19:35:25;98454.44;;;9.02;53.45
27685;BME280;46113;50.130;8.526;2023-03-22T19:37:51;98441.56;;;8.97;54.04
27685;BME280;46113;50.130;8.526;2023-03-22T19:40:17;98437.84;;;9.14;55.37
27685;BME280;46113;50.130;8.526;2023-03-22T19:42:42;98445.03;;;8.98;54.47
27685;BME280;46113;50.130;8.526;2023-03-22T19:45:08;98443.25;;;8.98;53.47
27685;BME280;46113;50.130;8.526;2023-03-22T19:47:34;98436.94;;;9.01;54.57
27685;BME280;46113;50.130;8.526;2023-03-22T19:50:00;98445.44;;;8.92;54.15
27685;BME280;46113;50.130;8.526;2023-03-22T19:52:26;98439.47;;;9.02;54.43
27685;BME280;46113;50.130;8.526;2023-03-22T19:54:51;98439.22;;;8.93;53.93
27685;BME280;46113;50.130;8.526;2023-03-22T19:57:18;98436.13;;;8.86;54.20
27685;BME280;46113;50.130;8.526;2023-03-22T19:59:44;98432.78;;;8.55;54.04
27685;BME280;46113;50.130;8.526;2023-03-22T20:02:10;98426.31;;;8.88;54.54
27685;BME280;46113;50.130;8.526;2023-03-22T20:04:36;98420.03;;;8.76;54.42
27685;BME280;46113;50.130;8.526;2023-03-22T20:07:05;98426.69;;;8.96;54.66
27685;BME280;46113;50.130;8.526;2023-03-22T20:09:32;98418.81;;;8.82;54.97
27685;BME280;46113;50.130;8.526;2023-03-22T20:11:57;98418.69;;;8.83;55.80
27685;BME280;46113;50.130;8.526;2023-03-22T20:14:23;98422.06;;;9.00;55.81
27685;BME280;46113;50.130;8.526;2023-03-22T20:16:48;98414.06;;;9.01;56.61
27685;BME280;46113;50.130;8.526;2023-03-22T20:19:14;98420.38;;;8.99;55.46
27685;BME280;46113;50.130;8.526;2023-03-22T20:21:40;98412.38;;;8.86;55.85
27685;BME280;46113;50.130;8.526;2023-03-22T20:24:07;98409.69;;;9.00;56.06
27685;BME280;46113;50.130;8.526;2023-03-22T20:26:33;98420.84;;;8.91;57.26
27685;BME280;46113;50.130;8.526;2023-03-22T20:28:59;98413.75;;;9.06;57.04
27685;BME280;46113;50.130;8.526;2023-03-22T20:31:25;98420.75;;;8.93;58.73
27685;BME280;46113;50.130;8.526;2023-03-22T20:33:52;98415.19;;;8.97;59.62
27685;BME280;46113;50.130;8.526;2023-03-22T20:36:18;98420.13;;;8.74;61.94
27685;BME280;46113;50.130;8.526;2023-03-22T20:38:43;98414.25;;;8.56;63.57
27685;BME280;46113;50.130;8.526;2023-03-22T20:41:12;98415.81;;;8.44;63.78
27685;BME280;46113;50.130;8.526;2023-03-22T20:43:46;98417.44;;;8.32;64.49
27685;BME280;46113;50.130;8.526;2023-03-22T20:46:12;98415.47;;;8.36;64.38
27685;BME280;46113;50.130;8.526;2023-03-22T20:48:38;98412.56;;;8.55;64.45
27685;BME280;46113;50.130;8.526;2023-03-22T20:51:04;98419.31;;;8.45;64.59
27685;BME280;46113;50.130;8.526;2023-03-22T20:53:30;98411.41;;;8.16;65.28
27685;BME280;46113;50.130;8.526;2023-03-22T20:55:56;98416.31;;;8.22;66.99
27685;BME280;46113;50.130;8.526;2023-03-22T20:58:23;98411.50;;;8.29;66.59
27685;BME280;46113;50.130;8.526;2023-03-22T21:00:49;98407.09;;;8.15;66.06
27685;BME280;46113;50.130;8.526;2023-03-22T21:03:17;98399.75;;;8.34;65.97
27685;BME280;46113;50.130;8.526;2023-03-22T21:05:42;98400.88;;;8.30;65.96
27685;BME280;46113;50.130;8.526;2023-03-22T21:08:09;98396.81;;;8.24;66.91
27685;BME280;46113;50.130;8.526;2023-03-22T21:10:35;98399.78;;;8.49;65.88
27685;BME280;46113;50.130;8.526;2023-03-22T21:13:01;98397.50;;;8.14;66.97
27685;BME280;46113;50.130;8.526;2023-03-22T21:15:28;98390.63;;;8.26;66.39
27685;BME280;46113;50.130;8.526;2023-03-22T21:17:53;98389.78;;;8.25;66.98
27685;BME280;46113;50.130;8.526;2023-03-22T21:20:20;98392.72;;;8.20;66.41
27685;BME280;46113;50.130;8.526;2023-03-22T21:22:46;98390.63;;;8.11;66.55
27685;BME280;46113;50.130;8.526;2023-03-22T21:25:12;98398.91;;;8.19;65.82
27685;BME280;46113;50.130;8.526;2023-03-22T21:27:37;98395.81;;;7.98;65.76
27685;BME280;46113;50.130;8.526;2023-03-22T21:30:04;98390.72;;;8.09;66.27
27685;BME280;46113;50.130;8.526;2023-03-22T21:32:30;98392.31;;;7.97;64.79
27685;BME280;46113;50.130;8.526;2023-03-22T21:34:56;98386.66;;;8.04;64.71
27685;BME280;46113;50.130;8.526;2023-03-22T21:37:22;98390.56;;;8.13;64.50
27685;BME280;46113;50.130;8.526;2023-03-22T21:39:52;98390.91;;;7.92;64.16
27685;BME280;46113;50.130;8.526;2023-03-22T21:42:24;98386.00;;;7.86;64.74
27685;BME280;46113;50.130;8.526;2023-03-22T21:44:52;98388.47;;;7.89;64.51
27685;BME280;46113;50.130;8.526;2023-03-22T21:47:22;98387.59;;;7.74;63.96
27685;BME280;46113;50.130;8.526;2023-03-22T21:49:48;98395.41;;;7.75;64.43
27685;BME280;46113;50.130;8.526;2023-03-22T21:52:24;98381.47;;;7.58;64.57
27685;BME280;46113;50.130;8.526;2023-03-22T21:54:52;98390.91;;;8.21;57.79
27685;BME280;46113;50.130;8.526;2023-03-22T21:57:25;98389.50;;;8.15;61.44
27685;BME280;46113;50.130;8.526;2023-03-22T21:59:51;98388.56;;;8.02;62.50
